TimeCDT,TemperatureF,Dew PointF,Humidity,Sea Level PressureIn,VisibilityMPH,Wind Direction,Wind SpeedMPH,Gust SpeedMPH,PrecipitationIn,Events,Conditions,WindDirDegrees,DateUTC
12:53 AM,26.1,18.0,71,30.35,10.0,Calm,Calm,-,N/A,,Clear,0,2013-04-04 05:53:00
1:53 AM,24.1,18.0,77,30.34,10.0,Calm,Calm,-,N/A,,Clear,0,2013-04-04 06:53:00
2:53 AM,21.9,17.1,82,30.30,10.0,ENE,4.6,-,N/A,,Clear,60,2013-04-04 07:53:00
3:53 AM,24.1,18.0,77,30.29,10.0,Calm,Calm,-,N/A,,Clear,0,2013-04-04 08:53:00
4:53 AM,23.0,18.0,81,30.27,10.0,NE,3.5,-,N/A,,Clear,50,2013-04-04 09:53:00
5:53 AM,21.9,17.1,82,30.25,10.0,Calm,Calm,-,N/A,,Clear,0,2013-04-04 10:53:00
6:53 AM,24.1,18.0,77,30.25,10.0,Calm,Calm,-,N/A,,Clear,0,2013-04-04 11:53:00
7:53 AM,32.0,21.0,64,30.26,10.0,Calm,Calm,-,N/A,,Clear,0,2013-04-04 12:53:00
8:53 AM,37.0,21.0,52,30.25,10.0,South,6.9,-,N/A,,Clear,190,2013-04-04 13:53:00
9:53 AM,44.1,19.0,37,30.22,10.0,South,9.2,-,N/A,,Clear,180,2013-04-04 14:53:00
10:53 AM,46.9,17.1,30,30.19,10.0,SSW,9.2,-,N/A,,Clear,210,2013-04-04 15:53:00
11:53 AM,48.9,17.1,28,30.16,10.0,Variable,5.8,-,N/A,,Clear,0,2013-04-04 16:53:00
12:53 PM,52.0,18.0,26,30.13,10.0,Variable,4.6,-,N/A,,Clear,0,2013-04-04 17:53:00
1:53 PM,54.0,17.1,23,30.09,10.0,WSW,5.8,-,N/A,,Clear,240,2013-04-04 18:53:00
2:53 PM,55.0,17.1,23,30.06,10.0,SW,8.1,-,N/A,,Clear,220,2013-04-04 19:53:00
3:53 PM,55.9,18.0,23,30.04,10.0,SW,9.2,-,N/A,,Clear,220,2013-04-04 20:53:00
4:53 PM,57.0,18.0,22,30.03,10.0,West,8.1,-,N/A,,Clear,260,2013-04-04 21:53:00
5:53 PM,57.0,17.1,21,30.01,10.0,SW,12.7,17.3,N/A,,Clear,230,2013-04-04 22:53:00
6:53 PM,54.0,19.0,25,30.01,10.0,WSW,8.1,-,N/A,,Clear,250,2013-04-04 23:53:00
7:53 PM,48.9,19.0,31,30.00,10.0,SW,3.5,-,N/A,,Clear,220,2013-04-05 00:53:00
8:53 PM,46.0,21.0,37,30.01,10.0,WSW,3.5,-,N/A,,Partly Cloudy,250,2013-04-05 01:53:00
9:53 PM,45.0,21.0,39,30.00,10.0,Calm,Calm,-,N/A,,Mostly Cloudy,0,2013-04-05 02:53:00
10:53 PM,46.9,23.0,39,29.99,10.0,WSW,5.8,-,N/A,,Overcast,250,2013-04-05 03:53:00
11:53 PM,42.1,24.1,49,29.99,10.0,Calm,Calm,-,N/A,,Clear,0,2013-04-05 04:53:00